Time;durP1;ratioP1;P1;durP2;ratioP2;P2;SDS_P1;SDS_P2;PMS_P1;PMS_P2;Temp;Humidity;BMP_temperature;BMP_pressure;BME280_temperature;BME280_humidity;BME280_pressure;Samples;Min_cycle;Max_cycle;Signal;HPM_P1;HPM_P2
2023/04/02 00:02:31;;;;;;;3.20;2.10;;;;;;;10.26;100.00;98199.41;5069606;28;20677;-81
2023/04/02 00:05:55;;;;;;;2.97;1.83;;;;;;;10.27;100.00;98211.69;5069803;28;20184;-81
2023/04/02 00:08:29;;;;;;;2.43;1.93;;;;;;;10.20;100.00;98218.38;4988273;28;20199;-81
2023/04/02 00:10:59;;;;;;;3.03;2.30;;;;;;;10.24;100.00;98216.38;4986681;28;20257;-81
2023/04/02 00:13:35;;;;;;;3.17;2.40;;;;;;;10.26;100.00;98222.41;4981322;28;20206;-81
2023/04/02 00:16:06;;;;;;;4.80;2.40;;;;;;;10.26;100.00;98227.69;5008115;28;20202;-81
2023/04/02 00:18:40;;;;;;;2.50;2.30;;;;;;;10.21;100.00;98224.50;5008286;28;20206;-81
2023/04/02 00:21:17;;;;;;;3.57;2.60;;;;;;;10.23;100.00;98223.47;5008061;28;20191;-82
2023/04/02 00:23:46;;;;;;;2.20;2.00;;;;;;;10.22;100.00;98234.16;5002967;28;20206;-81
2023/04/02 00:26:29;;;;;;;2.13;1.70;;;;;;;10.15;100.00;98236.44;5004873;28;20244;-82
2023/04/02 00:28:59;;;;;;;2.87;2.27;;;;;;;10.25;100.00;98233.94;5007303;28;20198;-81
2023/04/02 00:31:28;;;;;;;3.23;2.40;;;;;;;10.17;100.00;98233.66;5005175;28;20245;-81
2023/04/02 00:33:58;;;;;;;3.53;2.23;;;;;;;10.19;100.00;98243.16;5004643;28;20194;-81
2023/04/02 00:36:33;;;;;;;3.47;2.10;;;;;;;10.17;100.00;98245.09;5006444;28;20203;-81
2023/04/02 00:39:06;;;;;;;2.47;1.80;;;;;;;10.13;100.00;98248.06;5059654;28;20192;-82
2023/04/02 00:41:45;;;;;;;4.57;2.40;;;;;;;10.16;100.00;98250.50;5068832;28;20257;-82
2023/04/02 00:44:20;;;;;;;2.43;2.20;;;;;;;10.17;100.00;98250.38;5067990;28;20667;-81
2023/04/02 00:46:50;;;;;;;2.47;1.73;;;;;;;10.25;100.00;98258.59;5069647;28;20227;-81
2023/04/02 00:49:25;;;;;;;1.97;1.80;;;;;;;10.17;100.00;98258.31;5066300;28;20193;-81
2023/04/02 00:51:58;;;;;;;1.70;1.60;;;;;;;10.10;100.00;98259.72;5066882;28;20194;-81
2023/04/02 00:54:31;;;;;;;2.23;1.83;;;;;;;10.09;100.00;98262.50;5067211;28;20196;-81
2023/04/02 00:56:59;;;;;;;2.17;1.70;;;;;;;10.13;100.00;98256.00;5064113;28;20201;-81
2023/04/02 00:59:30;;;;;;;2.97;1.50;;;;;;;10.02;100.00;98268.25;5076653;28;20224;-81
2023/04/02 01:02:21;;;;;;;3.10;1.97;;;;;;;9.96;100.00;98265.25;5089417;28;20203;-81
2023/04/02 01:04:53;;;;;;;1.67;1.57;;;;;;;9.97;100.00;98264.28;5089207;28;20249;-81
2023/04/02 01:07:38;;;;;;;1.90;1.70;;;;;;;9.96;100.00;98275.81;5081631;28;20219;-81
2023/04/02 01:10:38;;;;;;;1.90;1.80;;;;;;;9.91;100.00;98276.16;5095502;28;20218;-81
2023/04/02 01:13:18;;;;;;;1.73;1.50;;;;;;;9.86;100.00;98277.47;5092181;28;20234;-82
2023/04/02 01:15:57;;;;;;;1.80;1.60;;;;;;;9.92;100.00;98279.66;5091379;28;20813;-81
2023/04/02 01:18:36;;;;;;;2.73;1.57;;;;;;;9.92;100.00;98285.78;5089681;28;20192;-81
2023/04/02 01:21:21;;;;;;;2.43;1.80;;;;;;;10.00;100.00;98283.41;5091472;28;20293;-82
2023/04/02 01:24:00;;;;;;;2.23;1.93;;;;;;;9.98;100.00;98284.47;5086367;28;20625;-81
2023/04/02 01:26:52;;;;;;;2.53;2.33;;;;;;;9.98;100.00;98295.91;5090692;28;20697;-81
2023/04/02 01:29:26;;;;;;;2.50;1.90;;;;;;;9.96;100.00;98302.28;5088863;28;20233;-81
2023/04/02 01:31:58;;;;;;;3.03;1.83;;;;;;;10.10;100.00;98302.06;5089017;28;20196;-81
2023/04/02 01:34:29;;;;;;;1.83;1.40;;;;;;;10.07;100.00;98304.94;5090569;28;20245;-82
2023/04/02 01:37:22;;;;;;;1.90;1.77;;;;;;;10.03;100.00;98309.63;5088962;28;20195;-81
2023/04/02 01:40:06;;;;;;;2.80;2.47;;;;;;;10.03;100.00;98309.63;5095188;28;20188;-81
2023/04/02 01:42:39;;;;;;;3.03;2.23;;;;;;;10.06;100.00;98320.94;5094837;28;20245;-81
2023/04/02 01:45:11;;;;;;;3.00;2.30;;;;;;;10.09;100.00;98326.00;4993904;28;20191;-81
2023/04/02 01:47:41;;;;;;;3.43;2.90;;;;;;;10.03;100.00;98332.59;5010595;28;20230;-81
2023/04/02 01:50:22;;;;;;;4.67;3.00;;;;;;;9.98;100.00;98334.75;5013013;28;20289;-81
2023/04/02 01:52:54;;;;;;;3.00;2.60;;;;;;;9.95;100.00;98349.06;5009457;28;20210;-81
2023/04/02 01:55:32;;;;;;;7.53;5.23;;;;;;;10.03;100.00;98349.28;5016367;28;20186;-82
2023/04/02 01:58:02;;;;;;;11.37;8.27;;;;;;;10.00;100.00;98349.53;5012025;28;20217;-81
2023/04/02 02:00:37;;;;;;;14.17;11.10;;;;;;;10.04;100.00;98347.53;5012305;28;20230;-82
2023/04/02 02:03:08;;;;;;;9.40;7.40;;;;;;;10.02;100.00;98357.34;5042882;28;20192;-81
2023/04/02 02:05:38;;;;;;;5.80;3.93;;;;;;;9.97;100.00;98357.72;5089802;28;20272;-81
2023/04/02 02:08:15;;;;;;;4.37;3.63;;;;;;;9.97;100.00;98357.72;5051924;28;20262;-81
2023/04/02 02:10:45;;;;;;;3.87;2.70;;;;;;;10.00;100.00;98360.13;5093016;28;20192;-81
2023/04/02 02:13:16;;;;;;;3.03;2.67;;;;;;;10.03;100.00;98366.97;5087765;28;20188;-81
2023/04/02 02:15:47;;;;;;;2.03;1.87;;;;;;;10.00;100.00;98369.84;5084855;28;20275;-82
2023/04/02 02:18:20;;;;;;;2.43;2.23;;;;;;;9.99;100.00;98363.72;5090270;28;20196;-82
2023/04/02 02:20:51;;;;;;;4.57;2.30;;;;;;;9.94;100.00;98372.94;5089890;28;20192;-82
2023/04/02 02:23:21;;;;;;;2.37;2.10;;;;;;;10.01;100.00;98372.38;5090134;28;20188;-81
2023/04/02 02:25:50;;;;;;;3.33;2.80;;;;;;;9.91;100.00;98374.03;5090109;28;20249;-81
2023/04/02 02:28:26;;;;;;;2.87;2.57;;;;;;;9.94;100.00;98376.47;5090212;28;20238;-82
2023/04/02 02:31:01;;;;;;;3.43;2.80;;;;;;;9.93;100.00;98382.69;5089122;28;20191;-81
2023/04/02 02:33:35;;;;;;;4.00;3.60;;;;;;;9.91;100.00;98392.53;5081495;28;20207;-81
2023/04/02 02:36:07;;;;;;;3.73;3.17;;;;;;;9.90;100.00;98397.94;5091456;28;20196;-81
2023/04/02 02:38:48;;;;;;;4.07;2.93;;;;;;;9.85;100.00;98400.09;5086518;28;20230;-81
2023/04/02 02:41:23;;;;;;;2.97;2.73;;;;;;;9.88;100.00;98405.16;5090827;28;20246;-81
2023/04/02 02:43:59;;;;;;;4.37;2.90;;;;;;;9.85;100.00;98410.69;5091091;28;20198;-81
2023/04/02 02:46:32;;;;;;;2.73;2.27;;;;;;;9.92;100.00;98411.91;5088615;28;20248;-81
2023/04/02 02:49:04;;;;;;;2.47;2.00;;;;;;;9.87;100.00;98416.69;5083585;28;20207;-81
2023/04/02 02:51:41;;;;;;;2.97;2.30;;;;;;;9.95;100.00;98416.97;5091369;28;20203;-81
2023/04/02 02:54:09;;;;;;;2.70;2.30;;;;;;;9.88;100.00;98416.59;5087557;28;20304;-81
2023/04/02 02:56:45;;;;;;;2.47;2.27;;;;;;;9.80;100.00;98424.22;5086207;28;20231;-81
2023/04/02 02:59:19;;;;;;;3.40;1.80;;;;;;;9.76;100.00;98428.06;5012211;28;20213;-80
2023/04/02 03:01:52;;;;;;;2.17;1.97;;;;;;;9.75;100.00;98426.38;5022964;28;20190;-81
2023/04/02 03:04:22;;;;;;;2.07;1.70;;;;;;;9.75;100.00;98437.78;5031368;28;20206;-81
2023/04/02 03:06:53;;;;;;;2.20;2.00;;;;;;;9.77;100.00;98445.63;5028970;28;20197;-81
2023/04/02 03:09:33;;;;;;;2.30;2.10;;;;;;;9.71;100.00;98436.31;5030269;28;20198;-81
2023/04/02 03:12:07;;;;;;;2.37;2.10;;;;;;;9.68;100.00;98451.56;5030544;28;20210;-81
2023/04/02 03:14:43;;;;;;;1.97;1.80;;;;;;;9.69;100.00;98454.09;5027503;28;20285;-81
2023/04/02 03:17:19;;;;;;;4.33;2.50;;;;;;;9.71;100.00;98457.47;5023869;28;20276;-81
2023/04/02 03:19:54;;;;;;;5.53;2.87;;;;;;;9.75;100.00;98469.53;5023877;28;20344;-81
2023/04/02 03:22:30;;;;;;;3.70;2.57;;;;;;;9.69;100.00;98469.13;5029743;28;20197;-81
2023/04/02 03:25:06;;;;;;;4.57;2.70;;;;;;;9.70;100.00;98474.28;5024540;28;20202;-81
2023/04/02 03:27:38;;;;;;;4.83;3.10;;;;;;;9.67;100.00;98474.50;5024929;28;20220;-81
2023/04/02 03:30:25;;;;;;;3.50;3.07;;;;;;;9.56;100.00;98479.72;5044837;28;20195;-81
2023/04/02 03:33:01;;;;;;;4.70;3.10;;;;;;;9.38;100.00;98484.50;5069881;28;20208;-81
2023/04/02 03:35:36;;;;;;;4.77;3.50;;;;;;;9.37;100.00;98493.38;5069655;28;20721;-81
2023/04/02 03:38:12;;;;;;;1.47;1.10;;;;;;;9.07;100.00;98500.75;5066237;28;20192;-80
2023/04/02 03:40:44;;;;;;;0.93;0.70;;;;;;;8.88;100.00;98504.69;5065628;28;20200;-81
2023/04/02 03:43:18;;;;;;;0.50;0.50;;;;;;;8.87;100.00;98505.59;5068883;28;20188;-80
2023/04/02 03:45:52;;;;;;;2.77;0.60;;;;;;;8.73;100.00;98504.84;5068681;28;20257;-80
2023/04/02 03:48:28;;;;;;;0.50;0.50;;;;;;;8.64;100.00;98521.31;5064847;28;20693;-81
2023/04/02 03:51:00;;;;;;;1.80;0.50;;;;;;;8.72;100.00;98529.56;5069767;28;20199;-81
2023/04/02 03:53:31;;;;;;;1.13;0.40;;;;;;;8.60;100.00;98518.03;5071778;28;20196;-81
2023/04/02 03:56:01;;;;;;;1.50;0.43;;;;;;;8.57;100.00;98532.25;5070136;28;20318;-81
2023/04/02 03:58:37;;;;;;;1.40;0.50;;;;;;;8.54;100.00;98534.25;5069562;28;20210;-81
2023/04/02 04:01:19;;;;;;;1.23;0.50;;;;;;;8.53;100.00;98543.97;5086225;28;20237;-80
2023/04/02 04:03:52;;;;;;;0.80;0.50;;;;;;;8.54;100.00;98550.09;5093013;28;20187;-80
2023/04/02 04:06:26;;;;;;;2.10;0.50;;;;;;;8.52;100.00;98552.00;5057744;28;20188;-81
2023/04/02 04:09:00;;;;;;;0.53;0.53;;;;;;;8.42;100.00;98558.81;5085823;28;20243;-81
2023/04/02 04:11:32;;;;;;;0.90;0.60;;;;;;;8.53;100.00;98562.44;5092633;28;20237;-81
2023/04/02 04:14:06;;;;;;;0.70;0.60;;;;;;;8.45;100.00;98571.81;5089679;28;20199;-81
2023/04/02 04:16:45;;;;;;;0.50;0.50;;;;;;;8.42;100.00;98574.66;5088266;28;20211;-81
2023/04/02 04:19:22;;;;;;;1.27;0.60;;;;;;;8.27;100.00;98582.56;5086531;28;20252;-81
2023/04/02 04:21:55;;;;;;;0.30;0.30;;;;;;;8.15;100.00;98590.41;5092722;28;20199;-81
2023/04/02 04:24:27;;;;;;;1.43;0.60;;;;;;;8.23;100.00;98586.34;5092839;28;20229;-81
2023/04/02 04:27:02;;;;;;;1.13;0.40;;;;;;;8.13;100.00;98598.44;5087365;28;20192;-80
2023/04/02 04:29:39;;;;;;;0.43;0.40;;;;;;;8.16;100.00;98598.22;5086180;28;20226;-81
2023/04/02 04:32:25;;;;;;;0.80;0.50;;;;;;;8.14;100.00;98605.41;5089369;28;20199;-80
2023/04/02 04:35:01;;;;;;;0.70;0.53;;;;;;;8.12;100.00;98612.56;5071021;28;20203;-81
2023/04/02 04:37:34;;;;;;;0.53;0.53;;;;;;;8.08;100.00;98618.97;5088809;28;20194;-81
2023/04/02 04:40:10;;;;;;;0.50;0.50;;;;;;;8.05;100.00;98621.81;5092592;28;20188;-80
2023/04/02 04:42:42;;;;;;;0.67;0.67;;;;;;;8.08;100.00;98628.66;5088179;28;20207;-81
2023/04/02 04:45:26;;;;;;;0.60;0.60;;;;;;;8.08;100.00;98633.94;5089559;28;20203;-80
2023/04/02 04:48:00;;;;;;;0.70;0.63;;;;;;;7.80;100.00;98640.06;5090868;28;20257;-81
2023/04/02 04:50:34;;;;;;;1.83;0.60;;;;;;;7.74;100.00;98647.41;5089773;28;20191;-81
2023/04/02 04:53:07;;;;;;;0.60;0.50;;;;;;;7.93;100.00;98655.06;5086749;28;20204;-81
2023/04/02 04:55:39;;;;;;;2.33;0.67;;;;;;;7.94;100.00;98654.13;5090523;28;20260;-80
2023/04/02 04:58:21;;;;;;;0.97;0.80;;;;;;;7.89;100.00;98653.53;5092023;28;20199;-81
2023/04/02 05:00:59;;;;;;;0.90;0.60;;;;;;;7.70;100.00;98655.59;5090472;28;20224;-81
2023/04/02 05:03:34;;;;;;;0.50;0.50;;;;;;;7.81;100.00;98662.84;5096116;28;20196;-81
2023/04/02 05:06:11;;;;;;;0.60;0.60;;;;;;;7.67;100.00;98663.69;5091143;28;20415;-81
2023/04/02 05:08:44;;;;;;;0.50;0.50;;;;;;;7.63;100.00;98667.47;5092411;28;20219;-81
2023/04/02 05:11:19;;;;;;;0.83;0.50;;;;;;;7.41;100.00;98670.50;5095984;28;20347;-81
2023/04/02 05:13:53;;;;;;;0.40;0.40;;;;;;;7.35;100.00;98673.53;5092933;28;20188;-80
2023/04/02 05:16:27;;;;;;;0.50;0.50;;;;;;;7.51;100.00;98679.56;5090315;28;20207;-80
2023/04/02 05:19:05;;;;;;;0.40;0.40;;;;;;;7.53;100.00;98685.59;5092820;28;20238;-80
2023/04/02 05:21:42;;;;;;;0.43;0.43;;;;;;;7.43;100.00;98689.69;5088318;28;20199;-81
2023/04/02 05:24:42;;;;;;;0.50;0.43;;;;;;;7.59;100.00;98695.78;5094491;28;20285;-81
2023/04/02 05:27:22;;;;;;;0.50;0.50;;;;;;;7.54;100.00;98695.22;5087686;28;20269;-80
2023/04/02 05:29:57;;;;;;;0.73;0.50;;;;;;;7.31;100.00;98707.06;5092417;28;20215;-80
2023/04/02 05:32:30;;;;;;;0.60;0.60;;;;;;;7.30;100.00;98712.44;5107187;28;20199;-81
2023/04/02 05:34:59;;;;;;;2.07;0.60;;;;;;;7.31;100.00;98714.13;5090425;28;20203;-81
2023/04/02 05:37:31;;;;;;;0.73;0.60;;;;;;;7.34;100.00;98722.72;5083810;28;20192;-81
2023/04/02 05:40:10;;;;;;;0.50;0.50;;;;;;;7.33;100.00;98718.38;5090457;28;20196;-81
2023/04/02 05:42:43;;;;;;;0.77;0.63;;;;;;;7.26;100.00;98719.69;5092342;28;20220;-80
2023/04/02 05:45:20;;;;;;;0.63;0.60;;;;;;;7.39;100.00;98730.34;5092187;28;20646;-80
2023/04/02 05:47:56;;;;;;;0.80;0.80;;;;;;;7.36;100.00;98734.00;5090930;28;20268;-81
2023/04/02 05:50:29;;;;;;;0.77;0.70;;;;;;;7.33;100.00;98746.50;5087424;28;20245;-80
2023/04/02 05:53:06;;;;;;;0.80;0.60;;;;;;;7.14;100.00;98736.16;5087592;28;20253;-81
2023/04/02 05:55:42;;;;;;;0.87;0.70;;;;;;;7.11;100.00;98746.88;5093225;28;20191;-81
2023/04/02 05:58:19;;;;;;;0.77;0.77;;;;;;;7.10;100.00;98755.72;5093213;28;20202;-81
2023/04/02 06:01:12;;;;;;;0.70;0.70;;;;;;;7.18;100.00;98762.25;5090796;28;20232;-80
2023/04/02 06:03:46;;;;;;;2.53;0.70;;;;;;;7.11;100.00;98765.31;5091601;28;20831;-80
2023/04/02 06:06:23;;;;;;;1.37;0.90;;;;;;;7.02;100.00;98779.84;5089120;28;20646;-80
2023/04/02 06:08:58;;;;;;;1.40;1.10;;;;;;;7.06;100.00;98780.53;5088021;28;20264;-80
2023/04/02 06:11:32;;;;;;;1.03;1.00;;;;;;;7.13;100.00;98787.13;5091858;28;20249;-80
2023/04/02 06:14:00;;;;;;;1.33;1.20;;;;;;;7.00;100.00;98802.78;5085655;28;20199;-81
2023/04/02 06:16:32;;;;;;;1.40;1.30;;;;;;;7.02;100.00;98805.31;5085169;28;20249;-80
2023/04/02 06:19:02;;;;;;;1.40;1.20;;;;;;;7.09;100.00;98809.31;5086964;28;20237;-80
2023/04/02 06:21:30;;;;;;;1.20;1.10;;;;;;;7.00;100.00;98808.03;5094827;28;20191;-81
2023/04/02 06:24:04;;;;;;;1.93;1.50;;;;;;;7.04;100.00;98820.09;5089097;28;20249;-80
2023/04/02 06:26:35;;;;;;;1.50;1.40;;;;;;;7.13;100.00;98826.63;5036685;28;20187;-80
2023/04/02 06:29:08;;;;;;;1.60;1.50;;;;;;;7.07;100.00;98825.22;5091798;28;20211;-80
2023/04/02 06:31:40;;;;;;;1.30;1.20;;;;;;;6.88;100.00;98835.91;5087580;28;20210;-81
2023/04/02 06:34:15;;;;;;;1.33;1.23;;;;;;;7.07;100.00;98838.38;5087709;28;20199;-80
2023/04/02 06:36:45;;;;;;;1.87;1.50;;;;;;;6.82;100.00;98846.75;5090251;28;20195;-80
2023/04/02 06:39:21;;;;;;;1.30;1.20;;;;;;;6.96;100.00;98855.69;5087490;28;20264;-80
2023/04/02 06:41:58;;;;;;;4.03;1.13;;;;;;;6.87;100.00;98857.03;5083773;28;20203;-80
2023/04/02 06:44:32;;;;;;;1.40;1.20;;;;;;;6.94;100.00;98860.16;5039242;28;20245;-80
2023/04/02 06:47:06;;;;;;;1.20;1.10;;;;;;;6.97;100.00;98867.91;5094136;28;20200;-80
2023/04/02 06:49:38;;;;;;;2.60;1.10;;;;;;;6.89;100.00;98870.97;5090599;28;20234;-80
2023/04/02 06:52:17;;;;;;;1.57;1.37;;;;;;;6.87;100.00;98876.31;5086298;28;20204;-80
2023/04/02 06:54:48;;;;;;;2.30;1.10;;;;;;;6.79;100.00;98877.66;5088332;28;20241;-80
2023/04/02 06:57:16;;;;;;;1.10;1.00;;;;;;;6.71;100.00;98890.38;5090315;28;20195;-80
2023/04/02 06:59:45;;;;;;;1.90;1.00;;;;;;;6.68;100.00;98896.66;5090880;28;20220;-80
2023/04/02 07:02:28;;;;;;;0.93;0.87;;;;;;;6.84;100.00;98904.56;5089144;28;20195;-80
2023/04/02 07:05:01;;;;;;;0.90;0.90;;;;;;;6.67;100.00;98915.16;5089742;28;20222;-80
2023/04/02 07:07:29;;;;;;;1.10;0.80;;;;;;;6.71;100.00;98912.25;5088591;28;20199;-80
2023/04/02 07:09:59;;;;;;;0.80;0.70;;;;;;;6.68;100.00;98915.06;5083668;28;20216;-80
2023/04/02 07:12:29;;;;;;;0.60;0.60;;;;;;;6.71;100.00;98914.03;5088200;28;20214;-80
2023/04/02 07:14:58;;;;;;;0.90;0.90;;;;;;;6.57;100.00;98917.41;5093508;28;20196;-80
2023/04/02 07:17:27;;;;;;;0.77;0.70;;;;;;;6.75;100.00;98928.72;5084606;28;20241;-80
2023/04/02 07:19:55;;;;;;;1.00;0.90;;;;;;;6.64;100.00;98938.97;5086396;28;20259;-80
2023/04/02 07:22:25;;;;;;;2.23;1.10;;;;;;;6.62;100.00;98944.31;5092181;28;20214;-80
2023/04/02 07:24:54;;;;;;;1.30;1.17;;;;;;;6.54;100.00;98952.59;5090223;28;20204;-80
2023/04/02 07:27:23;;;;;;;1.10;1.00;;;;;;;6.64;100.00;98957.38;5086457;28;20316;-80
2023/04/02 07:29:52;;;;;;;1.67;1.10;;;;;;;6.66;100.00;98969.56;5088527;28;20246;-80
2023/04/02 07:32:20;;;;;;;1.87;1.37;;;;;;;6.66;100.00;98974.81;5083008;28;20206;-80
2023/04/02 07:34:49;;;;;;;1.73;1.30;;;;;;;6.56;100.00;98974.44;5088739;28;20188;-80
2023/04/02 07:37:17;;;;;;;1.93;1.43;;;;;;;6.53;100.00;98984.25;5085315;28;20196;-80
2023/04/02 07:39:45;;;;;;;1.60;1.27;;;;;;;6.54;100.00;98988.59;5092928;28;20657;-80
2023/04/02 07:42:14;;;;;;;1.57;1.43;;;;;;;6.55;100.00;98996.41;5092939;28;20198;-80
2023/04/02 07:44:44;;;;;;;3.27;1.77;;;;;;;6.67;100.00;98992.31;5085131;28;20245;-80
2023/04/02 07:47:12;;;;;;;1.80;1.70;;;;;;;6.46;100.00;98999.47;5085674;28;20191;-80
2023/04/02 07:49:40;;;;;;;1.60;1.40;;;;;;;6.52;100.00;99004.44;5084678;28;20223;-81
2023/04/02 07:52:08;;;;;;;1.83;1.50;;;;;;;6.69;100.00;99015.91;5084267;28;20191;-80
2023/04/02 07:54:37;;;;;;;1.40;1.30;;;;;;;6.67;100.00;99004.63;5090594;28;20206;-80
2023/04/02 07:57:06;;;;;;;1.47;1.30;;;;;;;6.63;100.00;99013.59;5083420;28;20196;-81
2023/04/02 07:59:34;;;;;;;2.17;1.70;;;;;;;6.67;100.00;99020.41;5082183;28;20223;-81
2023/04/02 08:02:04;;;;;;;1.73;1.57;;;;;;;6.73;100.00;99036.72;5089084;28;20207;-80
2023/04/02 08:04:33;;;;;;;1.73;1.40;;;;;;;6.81;100.00;99033.72;5087374;28;20220;-81
2023/04/02 08:07:01;;;;;;;3.03;2.23;;;;;;;6.60;100.00;99030.38;5083550;28;20257;-81
2023/04/02 08:09:30;;;;;;;2.07;1.73;;;;;;;6.54;100.00;99046.47;5084718;28;20250;-81
2023/04/02 08:11:58;;;;;;;1.73;1.63;;;;;;;6.59;100.00;99040.06;5089862;28;20196;-81
2023/04/02 08:14:27;;;;;;;3.20;1.60;;;;;;;6.75;100.00;99047.16;5087392;28;20184;-81
2023/04/02 08:16:55;;;;;;;1.80;1.60;;;;;;;6.88;100.00;99046.50;5094861;28;20245;-81
2023/04/02 08:19:27;;;;;;;1.63;1.53;;;;;;;7.02;100.00;99053.69;5092311;28;20199;-81
2023/04/02 08:21:55;;;;;;;1.80;1.50;;;;;;;6.71;100.00;99071.97;5090440;28;20207;-81
2023/04/02 08:24:23;;;;;;;2.43;1.50;;;;;;;6.65;100.00;99067.84;5096915;28;20188;-80
2023/04/02 08:26:55;;;;;;;1.30;1.20;;;;;;;6.71;100.00;99071.97;5091577;28;20200;-81
2023/04/02 08:29:23;;;;;;;3.60;2.73;;;;;;;6.82;100.00;99075.75;5089110;28;20196;-81
2023/04/02 08:31:52;;;;;;;2.83;2.30;;;;;;;6.83;100.00;99082.72;5090587;28;20218;-80
2023/04/02 08:34:20;;;;;;;1.40;1.30;;;;;;;6.75;100.00;99090.13;5093781;28;20195;-81
2023/04/02 08:36:52;;;;;;;3.50;3.20;;;;;;;6.94;100.00;99086.59;5091659;28;20191;-82
2023/04/02 08:39:22;;;;;;;3.43;1.70;;;;;;;6.64;100.00;99092.44;5092589;28;20188;-81
2023/04/02 08:41:59;;;;;;;1.87;1.53;;;;;;;6.76;100.00;99102.41;5089812;28;20223;-80
2023/04/02 08:44:44;;;;;;;1.50;1.30;;;;;;;6.75;100.00;99105.06;5091588;28;20245;-80
2023/04/02 08:47:15;;;;;;;1.77;1.30;;;;;;;6.76;100.00;99110.28;5088484;28;20654;-80
2023/04/02 08:49:48;;;;;;;1.20;1.10;;;;;;;6.88;100.00;99119.34;5092224;28;20253;-80
2023/04/02 08:52:23;;;;;;;3.33;2.67;;;;;;;6.86;100.00;99119.44;5088523;28;20264;-80
2023/04/02 08:54:52;;;;;;;1.43;1.33;;;;;;;6.79;100.00;99127.72;5089838;28;20268;-80
2023/04/02 08:57:31;;;;;;;1.20;1.10;;;;;;;6.85;100.00;99130.03;5091169;28;20192;-80
2023/04/02 09:00:09;;;;;;;1.40;1.30;;;;;;;6.97;100.00;99136.47;5085163;28;20231;-80
2023/04/02 09:02:42;;;;;;;1.50;1.00;;;;;;;6.63;100.00;99132.00;5033303;28;20193;-80
2023/04/02 09:05:18;;;;;;;1.37;1.27;;;;;;;6.63;100.00;99147.78;5030619;28;20209;-80
2023/04/02 09:07:51;;;;;;;1.40;1.30;;;;;;;6.75;100.00;99155.09;5032002;28;20206;-80
2023/04/02 09:10:20;;;;;;;1.57;1.47;;;;;;;6.66;100.00;99164.31;5033363;28;20225;-80
2023/04/02 09:12:52;;;;;;;1.40;1.23;;;;;;;6.51;100.00;99165.88;5030301;28;20198;-80
2023/04/02 09:15:31;;;;;;;1.80;1.30;;;;;;;6.45;100.00;99171.41;5030672;28;20272;-79
2023/04/02 09:18:06;;;;;;;2.40;1.67;;;;;;;6.53;100.00;99169.28;5027918;28;20193;-80
2023/04/02 09:20:35;;;;;;;2.00;1.70;;;;;;;6.40;100.00;99177.84;5030636;28;20189;-80
2023/04/02 09:23:06;;;;;;;1.70;1.60;;;;;;;6.45;100.00;99184.56;5023482;28;20247;-80
2023/04/02 09:25:34;;;;;;;2.73;1.80;;;;;;;6.44;100.00;99184.66;5033606;28;20233;-80
2023/04/02 09:28:05;;;;;;;2.50;1.60;;;;;;;6.48;100.00;99197.59;5084089;28;20199;-80
2023/04/02 09:30:55;;;;;;;2.10;1.90;;;;;;;6.41;100.00;99195.31;5092678;28;20211;-80
2023/04/02 09:33:42;;;;;;;2.37;1.70;;;;;;;6.47;100.00;99208.22;5095581;28;20184;-79
2023/04/02 09:36:25;;;;;;;2.30;2.00;;;;;;;6.75;100.00;99216.47;5095549;28;20203;-80
2023/04/02 09:39:01;;;;;;;2.10;1.73;;;;;;;6.48;100.00;99217.81;5090910;28;20211;-80
2023/04/02 09:41:30;;;;;;;3.20;1.90;;;;;;;6.56;100.00;99224.41;5086619;28;20629;-80
2023/04/02 09:44:20;;;;;;;2.23;2.03;;;;;;;6.32;100.00;99228.16;5089335;28;20229;-80
2023/04/02 09:46:53;;;;;;;2.20;1.77;;;;;;;6.69;100.00;99237.00;5091616;28;20355;-80
2023/04/02 09:49:24;;;;;;;1.80;1.70;;;;;;;6.56;100.00;99234.06;5089157;28;20199;-80
2023/04/02 09:52:26;;;;;;;2.17;1.97;;;;;;;6.40;100.00;99243.59;5048657;28;20328;-80
2023/04/02 09:55:23;;;;;;;1.80;1.70;;;;;;;6.51;100.00;99242.19;5046198;28;20671;-80
2023/04/02 09:58:06;;;;;;;2.20;2.00;;;;;;;6.54;100.00;99244.66;5048383;28;20253;-80
2023/04/02 10:00:35;;;;;;;2.10;1.90;;;;;;;6.58;100.00;99251.50;5045550;28;20290;-81
2023/04/02 10:03:06;;;;;;;12.33;2.20;;;;;;;6.41;100.00;99256.69;5052532;28;20259;-79
2023/04/02 10:05:35;;;;;;;1.70;1.60;;;;;;;6.31;100.00;99264.13;5046036;28;20236;-80
2023/04/02 10:08:18;;;;;;;2.63;2.20;;;;;;;6.46;100.00;99256.44;5048405;28;20296;-80
2023/04/02 10:10:51;;;;;;;2.40;2.10;;;;;;;6.44;100.00;99274.09;5084975;28;20194;-80
2023/04/02 10:13:26;;;;;;;1.90;1.70;;;;;;;6.44;100.00;99281.97;5085961;28;20275;-80
2023/04/02 10:16:01;;;;;;;3.07;1.80;;;;;;;6.79;100.00;99277.75;5053432;28;20198;-80
2023/04/02 10:18:42;;;;;;;3.77;2.30;;;;;;;6.83;100.00;99288.06;5086189;28;20324;-81
2023/04/02 10:21:15;;;;;;;2.20;2.00;;;;;;;6.60;100.00;99286.50;5090738;28;20200;-80
2023/04/02 10:23:44;;;;;;;2.93;2.20;;;;;;;6.62;100.00;99282.94;5091024;28;20253;-80
2023/04/02 10:26:31;;;;;;;2.40;2.07;;;;;;;6.47;100.00;99295.03;5086291;28;20245;-80
2023/04/02 10:29:24;;;;;;;3.50;2.33;;;;;;;6.80;100.00;99309.25;5087419;28;20204;-80
2023/04/02 10:32:01;;;;;;;2.40;1.90;;;;;;;6.99;100.00;99311.03;5089256;28;20222;-81
2023/04/02 10:34:39;;;;;;;4.67;2.90;;;;;;;6.90;100.00;99312.31;5087874;28;20199;-80
2023/04/02 10:37:31;;;;;;;3.97;2.87;;;;;;;6.84;100.00;99317.88;5084693;28;20204;-80
2023/04/02 10:40:07;;;;;;;3.87;2.97;;;;;;;6.88;100.00;99316.81;5084413;28;20188;-80
2023/04/02 10:42:43;;;;;;;6.13;3.93;;;;;;;6.70;100.00;99320.28;5086115;28;20191;-80
2023/04/02 10:45:24;;;;;;;3.90;2.60;;;;;;;6.49;100.00;99325.59;5091758;28;20668;-80
2023/04/02 10:48:00;;;;;;;4.10;2.37;;;;;;;6.37;100.00;99341.06;5091143;28;20317;-80
2023/04/02 10:50:37;;;;;;;2.93;2.43;;;;;;;6.57;100.00;99336.63;5091126;28;20237;-81
2023/04/02 10:53:13;;;;;;;2.83;2.40;;;;;;;6.95;100.00;99343.69;5092410;28;20215;-80
2023/04/02 10:55:46;;;;;;;4.67;3.17;;;;;;;6.79;100.00;99340.94;5084152;28;20252;-80
2023/04/02 10:58:25;;;;;;;6.10;3.63;;;;;;;6.74;100.00;99346.38;5088418;28;20195;-80
2023/04/02 11:00:59;;;;;;;4.23;3.07;;;;;;;6.54;100.00;99352.53;5086839;28;20244;-80
2023/04/02 11:03:35;;;;;;;2.10;1.80;;;;;;;6.62;100.00;99354.84;5089637;28;20240;-79
2023/04/02 11:06:11;;;;;;;2.40;2.20;;;;;;;6.60;100.00;99361.97;5087223;28;20199;-80
2023/04/02 11:08:41;;;;;;;5.80;2.57;;;;;;;6.23;100.00;99366.19;5089479;28;20241;-79
2023/04/02 11:11:13;;;;;;;2.47;2.20;;;;;;;6.34;100.00;99367.50;5083142;28;20210;-79
2023/04/02 11:13:52;;;;;;;2.40;2.20;;;;;;;6.59;100.00;99369.00;5085296;28;20234;-79
2023/04/02 11:16:21;;;;;;;2.57;2.20;;;;;;;6.85;100.00;99380.13;5090546;28;20203;-79
2023/04/02 11:19:09;;;;;;;3.27;2.03;;;;;;;7.08;100.00;99382.56;5079941;28;20203;-79
2023/04/02 11:21:41;;;;;;;2.53;2.33;;;;;;;7.03;100.00;99384.53;5084994;28;20233;-80
2023/04/02 11:24:43;;;;;;;3.20;2.23;;;;;;;7.24;100.00;99380.09;5089175;28;20206;-79
2023/04/02 11:27:24;;;;;;;2.93;1.80;;;;;;;7.04;100.00;99383.63;5092719;28;20205;-80
2023/04/02 11:30:06;;;;;;;2.27;2.07;;;;;;;6.70;100.00;99389.56;5089944;28;20678;-79
2023/04/02 11:32:41;;;;;;;2.20;2.00;;;;;;;6.87;100.00;99392.31;5089748;28;20219;-80
2023/04/02 11:35:27;;;;;;;3.60;2.00;;;;;;;6.98;100.00;99397.09;5090670;28;20187;-80
2023/04/02 11:37:57;;;;;;;2.17;1.97;;;;;;;6.92;100.00;99405.25;5087817;28;20200;-80
2023/04/02 11:40:48;;;;;;;1.73;1.60;;;;;;;6.91;100.00;99406.19;5090461;28;20229;-80
2023/04/02 11:43:49;;;;;;;2.27;1.83;;;;;;;6.91;100.00;99421.13;5084646;28;20200;-80
2023/04/02 11:46:47;;;;;;;2.23;1.60;;;;;;;6.91;100.00;99411.44;5092944;28;20195;-79
2023/04/02 11:49:38;;;;;;;2.47;1.83;;;;;;;7.32;100.00;99422.72;5093131;28;20290;-80
2023/04/02 11:52:27;;;;;;;1.60;1.50;;;;;;;7.08;100.00;99422.06;5087481;28;20306;-80
2023/04/02 11:55:00;;;;;;;2.83;1.70;;;;;;;7.23;100.00;99436.31;5089948;28;20247;-80
2023/04/02 11:57:47;;;;;;;2.70;2.20;;;;;;;6.97;100.00;99431.41;5084361;28;20226;-80
2023/04/02 12:00:35;;;;;;;2.27;1.90;;;;;;;6.90;100.00;99428.16;5088557;28;20219;-80
2023/04/02 12:03:32;;;;;;;2.93;2.40;;;;;;;7.10;100.00;99428.13;5088622;28;20195;-80
2023/04/02 12:06:06;;;;;;;2.80;2.17;;;;;;;6.92;100.00;99441.25;5086920;28;20203;-80
2023/04/02 12:08:46;;;;;;;3.30;2.20;;;;;;;7.10;100.00;99457.09;5087703;28;20199;-80
2023/04/02 12:11:33;;;;;;;4.53;2.57;;;;;;;7.06;100.00;99462.59;5090275;28;20192;-80